Terminal Aerodrome Forecast
Issued by NWS Charleston, WV

Current Version | Previous Version | Graphics & Text | Print | Product List | Glossary On
Versions: 1 2 3 4 5 6 7 8 9 10 11 12 13 14 15 16 17 18 19 20 21 22 23 24 25 26 27
000
FTUS41 KRLX 021228 AAA
TAFHTS
TAF AMD
KHTS 021228Z 0212/0312 34004KT 1SM BR OVC002
      TEMPO 0212/0215 4SM BR OVC004
     FM021500 36004KT P6SM BKN015
     FM022300 03004KT P6SM BKN035
     FM030500 VRB03KT P6SM BKN060
     FM030900 VRB03KT 5SM BR BKN060
     FM031100 VRB03KT 6SM BR BKN030=

USA.gov is the U.S. government's official web portal to all federal, state and local government web resources and services.